createdAt,value
2023-03-03T00:00:29.057Z,34.15
2023-03-03T00:03:01.963Z,32.22
2023-03-03T00:05:28.710Z,32.75
2023-03-03T00:07:55.296Z,34.03
2023-03-03T00:10:21.999Z,33.92
2023-03-03T00:12:50.903Z,32.72
2023-03-03T00:15:20.694Z,32.85
2023-03-03T00:17:47.696Z,29.42
2023-03-03T00:20:37.533Z,27.90
2023-03-03T00:23:21.264Z,26.98
2023-03-03T00:25:51.885Z,28.70
2023-03-03T00:28:27.406Z,28.52
2023-03-03T00:30:56.264Z,29.83
2023-03-03T00:33:28.652Z,29.92
2023-03-03T00:35:57.627Z,30.40
2023-03-03T00:38:24.420Z,28.80
2023-03-03T00:40:51.542Z,30.23
2023-03-03T00:43:27.981Z,28.30
2023-03-03T00:45:56.820Z,27.17
2023-03-03T00:48:46.950Z,25.08
2023-03-03T00:51:23.076Z,24.13
2023-03-03T00:53:50.849Z,22.85
2023-03-03T00:56:17.525Z,23.25
2023-03-03T00:58:45.923Z,23.23
2023-03-03T01:01:12.866Z,23.27
2023-03-03T01:03:45.324Z,23.17
2023-03-03T01:06:12.812Z,21.60
2023-03-03T01:08:39.589Z,21.13
2023-03-03T01:11:16.356Z,22.75
2023-03-03T01:13:47.866Z,21.80
2023-03-03T01:16:14.675Z,24.02
2023-03-03T01:18:42.073Z,21.77
2023-03-03T01:21:09.983Z,21.77
2023-03-03T01:23:36.697Z,22.77
2023-03-03T01:26:04.667Z,22.63
2023-03-03T01:28:33.229Z,20.45
2023-03-03T01:31:05.977Z,20.98
2023-03-03T01:33:35.218Z,20.70
2023-03-03T01:36:02.676Z,21.40
2023-03-03T01:38:29.641Z,21.67
2023-03-03T01:40:59.596Z,22.30
2023-03-03T01:43:28.181Z,20.83
2023-03-03T01:45:57.936Z,21.95
2023-03-03T01:48:44.722Z,22.35
2023-03-03T01:51:34.316Z,23.38
2023-03-03T01:56:29.938Z,21.77
2023-03-03T01:59:16.316Z,22.75
2023-03-03T02:01:43.176Z,21.85
2023-03-03T02:04:10.148Z,21.80
2023-03-03T02:06:42.023Z,20.58
2023-03-03T02:09:53.501Z,22.65
2023-03-03T02:12:26.368Z,21.55
2023-03-03T02:14:53.097Z,22.17
2023-03-03T02:17:19.903Z,22.02
2023-03-03T02:19:58.193Z,24.27
2023-03-03T02:22:36.825Z,22.30
2023-03-03T02:25:18.203Z,23.40
2023-03-03T02:27:44.967Z,22.58
2023-03-03T02:30:21.077Z,21.85
2023-03-03T02:32:47.950Z,22.33
2023-03-03T02:35:37.318Z,25.58
2023-03-03T02:38:07.099Z,25.77
2023-03-03T02:40:40.567Z,25.33
2023-03-03T02:43:10.169Z,23.88
2023-03-03T02:45:42.806Z,23.85
2023-03-03T02:48:09.585Z,25.48
2023-03-03T02:50:36.445Z,26.33
2023-03-03T02:53:03.694Z,25.60
2023-03-03T02:55:30.513Z,29.10
2023-03-03T02:57:57.491Z,27.92
2023-03-03T03:00:25.662Z,28.55
2023-03-03T03:02:52.476Z,27.40
2023-03-03T03:05:19.599Z,29.02
2023-03-03T03:07:46.527Z,27.10
2023-03-03T03:10:13.309Z,28.88
2023-03-03T03:12:41.574Z,27.33
2023-03-03T03:15:10.599Z,26.77
2023-03-03T03:17:38.674Z,28.00
2023-03-03T03:20:07.092Z,26.70
2023-03-03T03:22:34.515Z,28.17
2023-03-03T03:25:01.802Z,27.77
2023-03-03T03:27:29.066Z,28.20
2023-03-03T03:29:56.104Z,26.95
2023-03-03T03:32:23.703Z,29.55
2023-03-03T03:34:51.015Z,26.30
2023-03-03T03:37:18.248Z,29.60
2023-03-03T03:39:46.176Z,25.10
2023-03-03T03:42:13.848Z,26.52
2023-03-03T03:44:41.213Z,27.17
2023-03-03T03:47:08.113Z,25.95
2023-03-03T03:49:36.604Z,26.08
2023-03-03T03:52:03.762Z,26.85
2023-03-03T03:54:32.807Z,27.17
2023-03-03T03:56:59.616Z,26.20
2023-03-03T03:59:27.228Z,27.85
2023-03-03T04:01:54.248Z,27.33
2023-03-03T04:04:22.276Z,26.35
2023-03-03T04:06:49.745Z,27.67
2023-03-03T04:09:16.823Z,26.75
2023-03-03T04:11:44.772Z,25.63
2023-03-03T04:14:12.839Z,25.40
2023-03-03T04:16:39.630Z,27.23
2023-03-03T04:19:06.506Z,25.50
2023-03-03T04:21:36.376Z,26.98
2023-03-03T04:24:03.091Z,27.00
2023-03-03T04:26:31.646Z,27.38
2023-03-03T04:29:01.198Z,24.05
2023-03-03T04:31:29.071Z,25.35
2023-03-03T04:33:56.107Z,25.15
2023-03-03T04:36:23.434Z,25.00
2023-03-03T04:38:50.275Z,26.60
2023-03-03T04:41:18.022Z,25.42
2023-03-03T04:43:45.483Z,25.33
2023-03-03T04:46:13.416Z,24.98
2023-03-03T04:48:40.292Z,25.75
2023-03-03T04:51:07.047Z,25.00
2023-03-03T04:53:36.769Z,26.00
2023-03-03T04:56:04.924Z,25.70
2023-03-03T04:58:31.855Z,25.75
2023-03-03T05:00:58.721Z,26.35
2023-03-03T05:03:28.266Z,25.13
2023-03-03T05:05:55.508Z,23.67
2023-03-03T05:08:22.845Z,25.17
2023-03-03T05:10:55.794Z,25.58
2023-03-03T05:13:28.485Z,25.23
2023-03-03T05:15:56.463Z,24.25
2023-03-03T05:18:27.795Z,25.02
2023-03-03T05:20:54.952Z,23.75
2023-03-03T05:23:22.006Z,23.92
2023-03-03T05:25:50.940Z,23.98
2023-03-03T05:28:18.347Z,23.05
2023-03-03T05:30:45.333Z,26.80
2023-03-03T05:33:21.627Z,23.85
2023-03-03T05:35:50.977Z,24.77
2023-03-03T05:38:19.717Z,24.10
2023-03-03T05:40:47.303Z,23.23
2023-03-03T05:43:14.120Z,22.42
2023-03-03T05:45:40.824Z,22.27
2023-03-03T05:48:07.553Z,21.70
2023-03-03T05:50:34.242Z,23.10
2023-03-03T05:53:01.014Z,22.27
2023-03-03T05:55:28.000Z,22.52
2023-03-03T05:57:55.667Z,21.35
2023-03-03T06:00:22.900Z,23.48
2023-03-03T06:02:49.668Z,21.92
2023-03-03T06:05:16.348Z,23.10
2023-03-03T06:07:43.181Z,21.77
2023-03-03T06:10:13.764Z,20.85
2023-03-03T06:12:42.520Z,22.40
2023-03-03T06:15:10.441Z,22.58
2023-03-03T06:17:37.205Z,21.25
2023-03-03T06:20:04.461Z,21.58
2023-03-03T06:22:31.923Z,21.08
2023-03-03T06:24:58.599Z,21.85
2023-03-03T06:27:25.429Z,21.83
2023-03-03T06:29:52.144Z,23.17
2023-03-03T06:32:18.918Z,19.30
2023-03-03T06:34:45.597Z,20.88
2023-03-03T06:37:12.230Z,21.63
2023-03-03T06:39:39.146Z,21.48
2023-03-03T06:42:07.194Z,23.13
2023-03-03T06:44:33.948Z,23.05
2023-03-03T06:47:00.830Z,22.88
2023-03-03T06:49:27.592Z,23.60
2023-03-03T06:51:54.614Z,22.02
2023-03-03T06:54:30.296Z,24.20
2023-03-03T06:57:13.927Z,23.58
2023-03-03T06:59:41.397Z,24.88
2023-03-03T07:02:17.477Z,24.35
2023-03-03T07:04:46.918Z,22.27
2023-03-03T07:07:20.705Z,23.08
2023-03-03T07:09:55.483Z,22.55
2023-03-03T07:12:30.741Z,23.30
2023-03-03T07:15:18.484Z,23.50
2023-03-03T07:17:50.929Z,22.27
2023-03-03T07:20:21.900Z,25.63
2023-03-03T07:22:48.618Z,24.45
2023-03-03T07:25:35.408Z,25.45
2023-03-03T07:28:33.041Z,21.95
2023-03-03T07:31:00.027Z,22.40
2023-03-03T07:33:38.004Z,23.27
2023-03-03T07:36:19.828Z,25.30
2023-03-03T07:38:54.701Z,24.55
2023-03-03T07:41:23.487Z,22.63
2023-03-03T07:43:55.021Z,18.73
2023-03-03T07:46:24.966Z,25.25
2023-03-03T07:48:53.141Z,26.08
2023-03-03T07:51:25.194Z,23.98
2023-03-03T07:53:54.258Z,26.88
2023-03-03T07:56:30.873Z,26.45
2023-03-03T07:58:58.627Z,25.30
2023-03-03T08:01:44.757Z,25.63
2023-03-03T08:04:40.861Z,25.08
2023-03-03T08:07:26.221Z,24.80
2023-03-03T08:09:59.926Z,24.85
2023-03-03T08:12:42.870Z,26.70
2023-03-03T08:15:36.807Z,23.92
2023-03-03T08:18:19.529Z,25.70
2023-03-03T08:20:48.329Z,24.80
2023-03-03T08:23:16.581Z,25.73
2023-03-03T08:25:43.865Z,24.85
2023-03-03T08:28:11.724Z,24.27
2023-03-03T08:30:38.835Z,24.33
2023-03-03T08:33:05.712Z,24.05
2023-03-03T08:35:32.501Z,24.10
2023-03-03T08:37:59.430Z,24.63
2023-03-03T08:40:26.166Z,23.20
2023-03-03T08:42:54.392Z,25.08
2023-03-03T08:45:21.735Z,23.73
2023-03-03T08:47:48.517Z,23.05
2023-03-03T08:50:15.386Z,24.52
2023-03-03T08:52:42.218Z,25.73
2023-03-03T08:55:09.650Z,24.73
2023-03-03T08:57:39.150Z,23.67
2023-03-03T09:00:12.931Z,23.73
2023-03-03T09:02:39.914Z,25.90
2023-03-03T09:05:07.343Z,24.90
2023-03-03T09:07:34.676Z,26.67
2023-03-03T09:10:01.996Z,24.75
2023-03-03T09:12:38.437Z,24.88
2023-03-03T09:15:14.710Z,25.05
2023-03-03T09:17:41.657Z,24.48
2023-03-03T09:20:35.661Z,25.45
2023-03-03T09:23:24.433Z,24.33
2023-03-03T09:25:52.753Z,24.83
2023-03-03T09:28:25.449Z,25.27
2023-03-03T09:30:54.532Z,22.63
2023-03-03T09:33:44.919Z,23.70
2023-03-03T09:36:24.317Z,23.17
2023-03-03T09:38:51.189Z,23.27
2023-03-03T09:41:17.860Z,24.65
2023-03-03T09:44:12.245Z,23.60
2023-03-03T09:46:54.202Z,25.42
2023-03-03T09:50:00.688Z,23.67
2023-03-03T09:52:57.275Z,23.42
2023-03-03T09:55:57.333Z,24.65
2023-03-03T09:58:29.748Z,24.15
2023-03-03T10:01:05.680Z,22.67
2023-03-03T10:03:32.340Z,23.45
2023-03-03T10:06:20.699Z,23.15
2023-03-03T10:09:09.011Z,23.08
2023-03-03T10:11:49.994Z,21.52
2023-03-03T10:14:49.353Z,23.75
2023-03-03T10:17:54.325Z,25.42
2023-03-03T10:20:40.435Z,24.88
2023-03-03T10:23:29.596Z,23.50
2023-03-03T10:26:05.721Z,22.27
2023-03-03T10:28:35.410Z,22.88
2023-03-03T10:31:37.732Z,22.20
2023-03-03T10:34:29.820Z,21.58
2023-03-03T10:37:31.114Z,20.85
2023-03-03T10:40:24.014Z,18.85
2023-03-03T10:43:08.783Z,21.92
2023-03-03T10:45:57.889Z,20.63
2023-03-03T10:48:42.876Z,21.75
2023-03-03T10:51:18.588Z,19.58
2023-03-03T10:54:04.265Z,18.75
2023-03-03T10:56:52.173Z,20.02
2023-03-03T10:59:57.637Z,21.15
2023-03-03T11:02:42.052Z,18.45
2023-03-03T11:05:27.112Z,20.50
2023-03-03T11:08:02.266Z,18.92
2023-03-03T11:10:35.191Z,20.15
2023-03-03T11:13:11.210Z,23.30
2023-03-03T11:15:44.644Z,21.33
2023-03-03T11:18:23.836Z,20.08
2023-03-03T11:20:59.706Z,22.42
2023-03-03T11:23:43.555Z,21.27
2023-03-03T11:26:16.050Z,20.38
2023-03-03T11:29:13.186Z,20.45
2023-03-03T11:31:53.644Z,20.15
2023-03-03T11:34:45.130Z,22.25
2023-03-03T11:37:20.209Z,21.80
2023-03-03T11:39:49.371Z,20.98
2023-03-03T11:42:17.219Z,21.73
2023-03-03T11:44:50.029Z,21.20
2023-03-03T11:47:19.490Z,19.95
2023-03-03T11:49:58.046Z,19.83
2023-03-03T11:52:40.584Z,20.13
2023-03-03T11:55:17.521Z,19.35
2023-03-03T11:58:14.462Z,18.35
2023-03-03T12:00:58.616Z,18.75
2023-03-03T12:03:40.593Z,19.25
2023-03-03T12:06:12.518Z,18.45
2023-03-03T12:09:07.990Z,18.20
2023-03-03T12:11:43.286Z,17.23
2023-03-03T12:14:12.883Z,18.90
2023-03-03T12:16:58.719Z,17.13
2023-03-03T12:19:28.192Z,16.08
2023-03-03T12:22:22.667Z,14.85
2023-03-03T12:25:17.531Z,15.63
2023-03-03T12:27:53.396Z,13.95
2023-03-03T12:30:35.933Z,15.20
2023-03-03T12:33:14.897Z,12.98
2023-03-03T12:36:06.599Z,14.00
2023-03-03T12:39:01.817Z,14.32
2023-03-03T12:41:39.691Z,14.55
2023-03-03T12:44:38.944Z,14.35
2023-03-03T12:47:35.015Z,15.68
2023-03-03T12:50:25.456Z,14.77
2023-03-03T12:53:02.749Z,15.32
2023-03-03T12:55:50.573Z,14.73
2023-03-03T12:58:29.462Z,14.73
2023-03-03T13:00:59.258Z,14.63
2023-03-03T13:03:54.912Z,14.82
2023-03-03T13:06:33.291Z,15.25
2023-03-03T13:09:03.078Z,15.75
2023-03-03T13:12:03.514Z,14.13
2023-03-03T13:14:43.747Z,14.52
2023-03-03T13:17:37.230Z,14.05
2023-03-03T13:20:17.195Z,13.35
2023-03-03T13:22:55.800Z,15.38
2023-03-03T13:25:50.337Z,12.90
2023-03-03T13:28:23.471Z,14.98
2023-03-03T13:30:56.709Z,13.23
2023-03-03T13:33:30.977Z,14.75
2023-03-03T13:36:10.416Z,13.40
2023-03-03T13:38:42.770Z,13.80
2023-03-03T13:41:34.030Z,14.70
2023-03-03T13:44:15.365Z,13.15
2023-03-03T13:46:58.362Z,14.65
2023-03-03T13:49:37.295Z,13.45
2023-03-03T13:52:08.837Z,11.88
2023-03-03T13:54:41.687Z,13.20
2023-03-03T13:57:27.976Z,11.90
2023-03-03T14:00:18.314Z,12.40
2023-03-03T14:03:08.223Z,12.65
2023-03-03T14:05:39.239Z,14.00
2023-03-03T14:08:36.997Z,13.95
2023-03-03T14:11:12.480Z,13.30
2023-03-03T14:14:00.385Z,14.57
2023-03-03T14:16:33.167Z,14.45
2023-03-03T14:19:05.796Z,16.10
2023-03-03T14:21:43.809Z,16.90
2023-03-03T14:24:20.170Z,19.02
2023-03-03T14:26:52.036Z,19.23
2023-03-03T14:29:27.960Z,17.42
2023-03-03T14:32:01.556Z,18.95
2023-03-03T14:34:39.354Z,18.65
2023-03-03T14:37:26.307Z,17.73
2023-03-03T14:40:30.668Z,17.17
2023-03-03T14:43:03.897Z,16.80
2023-03-03T14:45:39.568Z,17.55
2023-03-03T14:48:27.470Z,19.00
2023-03-03T14:51:15.708Z,18.92
2023-03-03T14:53:48.062Z,18.80
2023-03-03T14:56:49.471Z,19.17
2023-03-03T14:59:23.878Z,18.05
2023-03-03T15:02:16.767Z,19.55
2023-03-03T15:04:45.842Z,18.23
2023-03-03T15:07:28.040Z,18.08
2023-03-03T15:09:54.901Z,18.60
2023-03-03T15:12:42.220Z,19.38
2023-03-03T15:15:20.878Z,18.33
2023-03-03T15:17:50.656Z,18.37
2023-03-03T15:20:35.996Z,18.45
2023-03-03T15:23:27.461Z,19.35
2023-03-03T15:25:58.811Z,18.77
2023-03-03T15:28:44.553Z,18.00
2023-03-03T15:31:17.540Z,19.25
2023-03-03T15:33:53.391Z,18.30
2023-03-03T15:36:32.386Z,18.70
2023-03-03T15:39:41.818Z,18.95
2023-03-03T15:45:27.205Z,19.13
2023-03-03T15:48:03.978Z,18.48
2023-03-03T15:50:39.209Z,19.27
2023-03-03T15:53:40.946Z,18.80
2023-03-03T15:56:11.075Z,19.30
2023-03-03T15:59:02.756Z,21.05
2023-03-03T16:01:32.168Z,20.05
2023-03-03T16:04:04.388Z,19.90
2023-03-03T16:06:38.220Z,20.92
2023-03-03T16:09:28.220Z,19.35
2023-03-03T16:12:01.230Z,18.83
2023-03-03T16:14:30.994Z,19.05
2023-03-03T16:17:28.938Z,18.75
2023-03-03T16:19:55.642Z,19.63
2023-03-03T16:22:46.831Z,17.70
2023-03-03T16:25:20.608Z,19.02
2023-03-03T16:28:31.050Z,20.35
2023-03-03T16:31:13.263Z,19.67
2023-03-03T16:33:52.048Z,19.90
2023-03-03T16:36:38.397Z,14.83
2023-03-03T16:39:33.903Z,19.15
2023-03-03T16:42:06.662Z,19.52
2023-03-03T16:44:54.990Z,19.17
2023-03-03T16:47:38.954Z,19.77
2023-03-03T16:50:27.298Z,19.92
2023-03-03T16:53:13.046Z,20.55
2023-03-03T16:55:45.846Z,25.52
2023-03-03T16:58:40.790Z,24.60
2023-03-03T17:01:26.591Z,20.38
2023-03-03T17:04:22.390Z,19.55
2023-03-03T17:06:59.728Z,18.98
2023-03-03T17:09:45.350Z,18.83
2023-03-03T17:12:18.077Z,17.70
2023-03-03T17:15:05.527Z,19.02
2023-03-03T17:17:50.501Z,19.30
2023-03-03T17:20:20.125Z,17.77
2023-03-03T17:23:20.260Z,18.90
2023-03-03T17:25:56.316Z,18.45
2023-03-03T17:28:43.119Z,18.33
2023-03-03T17:31:12.642Z,18.88
2023-03-03T17:34:11.632Z,19.30
2023-03-03T17:36:45.847Z,14.20
2023-03-03T17:39:20.099Z,18.67
2023-03-03T17:42:14.484Z,22.60
2023-03-03T17:44:55.938Z,22.10
2023-03-03T17:47:45.608Z,22.20
2023-03-03T17:50:15.674Z,24.30
2023-03-03T17:52:48.775Z,21.73
2023-03-03T17:55:21.360Z,21.42
2023-03-03T17:58:09.905Z,20.33
2023-03-03T18:00:55.849Z,21.20
2023-03-03T18:03:36.114Z,21.45
2023-03-03T18:06:32.164Z,21.48
2023-03-03T18:09:14.216Z,19.85
2023-03-03T18:12:11.076Z,19.90
2023-03-03T18:14:46.946Z,19.67
2023-03-03T18:17:36.430Z,20.92
2023-03-03T18:20:39.263Z,19.83
2023-03-03T18:23:31.752Z,19.27
2023-03-03T18:26:41.645Z,19.17
2023-03-03T18:29:17.414Z,20.27
2023-03-03T18:31:52.776Z,21.65
2023-03-03T18:34:22.410Z,20.13
2023-03-03T18:39:46.936Z,17.58
2023-03-03T18:42:16.710Z,18.33
2023-03-03T18:44:47.888Z,20.23
2023-03-03T18:47:15.505Z,20.60
2023-03-03T18:49:52.736Z,23.55
2023-03-03T18:52:28.993Z,25.27
2023-03-03T18:55:11.474Z,22.50
2023-03-03T18:57:40.460Z,20.63
2023-03-03T19:00:22.739Z,20.83
2023-03-03T19:02:59.025Z,22.50
2023-03-03T19:05:28.758Z,20.75
2023-03-03T19:08:02.148Z,20.60
2023-03-03T19:10:51.029Z,21.45
2023-03-03T19:13:33.127Z,20.55
2023-03-03T19:16:04.412Z,20.30
2023-03-03T19:18:55.518Z,21.58
2023-03-03T19:21:32.441Z,23.88
2023-03-03T19:24:02.023Z,21.95
2023-03-03T19:29:26.813Z,21.65
2023-03-03T19:32:09.435Z,20.67
2023-03-03T19:35:06.744Z,21.75
2023-03-03T19:37:39.327Z,20.23
2023-03-03T19:40:28.090Z,20.40
2023-03-03T19:43:15.831Z,19.83
2023-03-03T19:45:51.485Z,19.58
2023-03-03T19:48:36.762Z,20.00
2023-03-03T19:51:27.788Z,19.88
2023-03-03T19:54:09.698Z,20.65
2023-03-03T19:56:51.084Z,19.40
2023-03-03T19:59:31.507Z,20.63
2023-03-03T20:02:38.066Z,19.40
2023-03-03T20:05:14.596Z,18.95
2023-03-03T20:07:48.678Z,20.17
2023-03-03T20:10:57.281Z,21.00
2023-03-03T20:13:48.324Z,18.73
2023-03-03T20:16:27.768Z,19.70
2023-03-03T20:19:03.551Z,17.85
2023-03-03T20:21:38.907Z,19.30
2023-03-03T20:24:40.937Z,18.25
2023-03-03T20:27:19.971Z,17.85
2023-03-03T20:29:55.526Z,18.80
2023-03-03T20:32:51.334Z,19.08
2023-03-03T20:35:47.458Z,17.27
2023-03-03T20:38:51.773Z,18.92
2023-03-03T20:41:21.622Z,19.70
2023-03-03T20:43:57.593Z,17.45
2023-03-03T20:46:32.188Z,17.85
2023-03-03T20:49:01.649Z,16.85
2023-03-03T20:52:05.676Z,17.60
2023-03-03T20:55:10.212Z,18.60
2023-03-03T20:57:47.081Z,17.13
2023-03-03T21:00:25.452Z,17.38
2023-03-03T21:03:34.155Z,17.48
2023-03-03T21:06:20.913Z,17.50
2023-03-03T21:08:48.513Z,16.23
2023-03-03T21:11:18.920Z,17.75
2023-03-03T21:13:52.149Z,15.77
2023-03-03T21:16:21.956Z,15.07
2023-03-03T21:19:06.168Z,15.52
2023-03-03T21:21:38.512Z,16.60
2023-03-03T21:24:06.489Z,15.32
2023-03-03T21:26:45.918Z,16.00
2023-03-03T21:29:23.174Z,16.63
2023-03-03T21:32:01.092Z,15.35
2023-03-03T21:34:33.621Z,15.00
2023-03-03T21:37:07.107Z,13.60
2023-03-03T21:39:39.152Z,15.00
2023-03-03T21:42:07.493Z,14.90
2023-03-03T21:45:01.057Z,13.35
2023-03-03T21:47:29.181Z,14.27
2023-03-03T21:49:55.885Z,14.80
2023-03-03T21:52:22.885Z,13.93
2023-03-03T21:54:51.603Z,13.82
2023-03-03T21:57:18.417Z,13.97
2023-03-03T21:59:45.088Z,14.52
2023-03-03T22:02:11.825Z,14.38
2023-03-03T22:04:38.914Z,15.50
2023-03-03T22:07:05.717Z,15.23
2023-03-03T22:09:32.442Z,14.27
2023-03-03T22:11:59.193Z,11.40
2023-03-03T22:14:25.973Z,11.05
2023-03-03T22:16:52.759Z,10.98
2023-03-03T22:19:19.460Z,7.38
2023-03-03T22:21:47.380Z,8.20
2023-03-03T22:24:14.110Z,6.65
2023-03-03T22:26:40.847Z,6.93
2023-03-03T22:29:08.824Z,6.85
2023-03-03T22:31:35.624Z,6.63
2023-03-03T22:34:02.497Z,6.22
2023-03-03T22:36:29.213Z,6.95
2023-03-03T22:38:55.927Z,6.97
2023-03-03T22:41:22.627Z,7.45
2023-03-03T22:43:49.538Z,7.72
2023-03-03T22:46:16.283Z,7.85
2023-03-03T22:48:43.098Z,8.88
2023-03-03T22:51:09.839Z,8.25
2023-03-03T22:53:36.574Z,8.52
2023-03-03T22:56:03.493Z,7.97
2023-03-03T22:58:30.889Z,8.00
2023-03-03T23:00:57.610Z,7.18
2023-03-03T23:03:24.841Z,8.48
2023-03-03T23:05:52.132Z,7.93
2023-03-03T23:08:20.574Z,8.13
2023-03-03T23:10:48.345Z,7.53
2023-03-03T23:13:15.610Z,8.38
2023-03-03T23:15:43.172Z,8.02
2023-03-03T23:18:10.193Z,7.53
2023-03-03T23:20:37.414Z,7.60
2023-03-03T23:23:04.348Z,7.00
2023-03-03T23:25:31.230Z,7.05
2023-03-03T23:27:57.966Z,5.55
2023-03-03T23:30:25.299Z,8.27
2023-03-03T23:32:52.189Z,4.30
2023-03-03T23:35:22.142Z,4.38
2023-03-03T23:37:48.943Z,10.82
2023-03-03T23:40:16.724Z,7.07
2023-03-03T23:42:43.802Z,5.95
2023-03-03T23:45:13.286Z,5.47
2023-03-03T23:50:07.767Z,4.88
2023-03-03T23:52:34.632Z,5.38
2023-03-03T23:55:01.561Z,4.70
2023-03-03T23:57:28.350Z,5.13
2023-03-03T23:59:55.045Z,5.32
